createdAt,value
2019-04-05T00:00:15.127Z,13.53
2019-04-05T00:02:43.571Z,13.52
2019-04-05T00:05:12.446Z,13.44
2019-04-05T00:07:40.910Z,13.59
2019-04-05T00:10:10.411Z,13.48
2019-04-05T00:12:38.861Z,13.47
2019-04-05T00:15:15.026Z,13.53
2019-04-05T00:17:37.734Z,13.49
2019-04-05T00:20:08.375Z,13.30
2019-04-05T00:22:36.858Z,13.34
2019-04-05T00:25:06.638Z,13.30
2019-04-05T00:27:35.080Z,13.22
2019-04-05T00:30:04.519Z,13.14
2019-04-05T00:32:32.985Z,13.28
2019-04-05T00:35:01.455Z,12.96
2019-04-05T00:37:29.900Z,12.96
2019-04-05T00:39:58.327Z,13.06
2019-04-05T00:42:26.806Z,12.98
2019-04-05T00:44:55.272Z,13.03
2019-04-05T00:47:23.706Z,13.03
2019-04-05T00:49:52.177Z,12.68
2019-04-05T00:52:20.627Z,12.73
2019-04-05T00:54:49.117Z,12.61
2019-04-05T00:57:17.577Z,12.74
2019-04-05T00:59:46.057Z,12.63
2019-04-05T01:02:14.523Z,12.55
2019-04-05T01:04:42.972Z,12.61
2019-04-05T01:07:11.482Z,12.40
2019-04-05T01:09:39.954Z,12.36
2019-04-05T01:12:08.441Z,12.41
2019-04-05T01:14:38.014Z,12.37
2019-04-05T01:17:06.465Z,12.31
2019-04-05T01:19:35.507Z,12.25
2019-04-05T01:22:05.833Z,12.30
2019-04-05T01:24:34.632Z,12.43
2019-04-05T01:27:05.133Z,12.39
2019-04-05T01:29:33.625Z,12.45
2019-04-05T01:32:02.084Z,12.32
2019-04-05T01:34:30.619Z,11.93
2019-04-05T01:36:59.401Z,11.93
2019-04-05T01:39:27.831Z,12.11
2019-04-05T01:41:56.531Z,12.15
2019-04-05T01:44:25.670Z,12.19
2019-04-05T01:46:54.093Z,12.13
2019-04-05T01:49:22.548Z,12.12
2019-04-05T01:51:51.000Z,12.19
2019-04-05T01:54:19.481Z,12.23
2019-04-05T01:56:48.709Z,12.23
2019-04-05T01:59:17.176Z,12.24
2019-04-05T02:01:45.691Z,12.18
2019-04-05T02:04:14.133Z,12.32
2019-04-05T02:06:43.240Z,12.20
2019-04-05T02:09:12.441Z,12.12
2019-04-05T02:11:40.964Z,12.12
2019-04-05T02:14:09.476Z,12.19
2019-04-05T02:16:37.949Z,12.18
2019-04-05T02:19:06.485Z,12.16
2019-04-05T02:21:34.945Z,12.07
2019-04-05T02:24:03.418Z,12.07
2019-04-05T02:26:31.868Z,11.96
2019-04-05T02:29:00.340Z,12.09
2019-04-05T02:31:28.775Z,12.00
2019-04-05T02:33:57.309Z,12.00
2019-04-05T02:36:25.792Z,11.84
2019-04-05T02:38:54.214Z,11.84
2019-04-05T02:41:25.717Z,11.81
2019-04-05T02:43:56.081Z,11.81
2019-04-05T02:46:26.347Z,11.76
2019-04-05T02:48:55.950Z,11.71
2019-04-05T02:51:26.089Z,11.70
2019-04-05T02:53:57.451Z,11.62
2019-04-05T02:56:27.801Z,11.62
2019-04-05T02:58:56.501Z,11.58
2019-04-05T03:01:25.199Z,11.51
2019-04-05T03:03:53.674Z,11.64
2019-04-05T03:06:22.332Z,11.69
2019-04-05T03:08:51.756Z,11.42
2019-04-05T03:11:22.308Z,11.42
2019-04-05T03:13:54.188Z,11.52
2019-04-05T03:16:40.095Z,11.48
2019-04-05T03:19:08.093Z,11.54
2019-04-05T03:21:39.607Z,11.54
2019-04-05T03:24:10.332Z,11.52
2019-04-05T03:26:41.832Z,11.54
2019-04-05T03:29:10.944Z,11.46
2019-04-05T03:31:39.733Z,11.40
2019-04-05T03:34:08.931Z,11.33
2019-04-05T03:36:38.394Z,11.22
2019-04-05T03:39:07.466Z,11.24
2019-04-05T03:41:36.678Z,11.26
2019-04-05T03:44:06.265Z,11.26
2019-04-05T03:46:34.808Z,11.22
2019-04-05T03:49:05.001Z,11.23
2019-04-05T03:51:33.993Z,11.15
2019-04-05T03:54:02.714Z,11.18
2019-04-05T03:56:31.722Z,10.98
2019-04-05T03:59:00.330Z,11.11
2019-04-05T04:01:28.863Z,10.79
2019-04-05T04:03:57.489Z,10.84
2019-04-05T04:06:25.951Z,10.76
2019-04-05T04:08:54.448Z,10.77
2019-04-05T04:11:22.887Z,10.54
2019-04-05T04:13:51.492Z,10.77
2019-04-05T04:16:20.186Z,10.78
2019-04-05T04:18:49.390Z,10.74
2019-04-05T04:21:29.689Z,10.78
2019-04-05T04:23:58.591Z,10.82
2019-04-05T04:26:27.295Z,10.68
2019-04-05T04:28:55.811Z,10.89
2019-04-05T04:31:24.638Z,10.70
2019-04-05T04:33:53.671Z,10.52
2019-04-05T04:36:22.379Z,10.47
2019-04-05T04:38:51.316Z,10.60
2019-04-05T04:41:19.803Z,10.50
2019-04-05T04:43:48.698Z,10.40
2019-04-05T04:46:17.233Z,10.31
2019-04-05T04:48:45.743Z,10.16
2019-04-05T04:51:14.541Z,10.30
2019-04-05T04:53:43.662Z,10.18
2019-04-05T04:56:12.301Z,10.26
2019-04-05T04:58:40.762Z,10.20
2019-04-05T05:01:09.565Z,10.27
2019-04-05T05:03:38.379Z,10.22
2019-04-05T05:06:07.534Z,10.15
2019-04-05T05:08:36.057Z,10.11
2019-04-05T05:11:14.494Z,10.17
2019-04-05T05:13:35.431Z,10.17
2019-04-05T05:16:04.101Z,10.16
2019-04-05T05:18:32.719Z,10.25
2019-04-05T05:21:01.357Z,10.20
2019-04-05T05:23:30.075Z,10.30
2019-04-05T05:25:58.984Z,10.28
2019-04-05T05:28:27.483Z,10.16
2019-04-05T05:30:56.309Z,10.32
2019-04-05T05:33:24.906Z,10.49
2019-04-05T05:35:53.353Z,10.46
2019-04-05T05:38:21.923Z,10.63
2019-04-05T05:40:50.378Z,10.76
2019-04-05T05:43:18.879Z,10.83
2019-04-05T05:45:47.353Z,11.04
2019-04-05T05:48:16.549Z,11.15
2019-04-05T05:50:45.088Z,11.26
2019-04-05T05:53:13.823Z,11.36
2019-04-05T05:55:42.283Z,11.48
2019-04-05T05:58:10.767Z,11.41
2019-04-05T06:00:39.287Z,11.49
2019-04-05T06:03:10.807Z,11.86
2019-04-05T06:05:37.918Z,11.94
2019-04-05T06:08:06.399Z,12.14
2019-04-05T06:10:34.841Z,12.14
2019-04-05T06:13:06.664Z,11.77
2019-04-05T06:15:33.497Z,11.77
2019-04-05T06:18:04.781Z,12.09
2019-04-05T06:20:32.127Z,12.20
2019-04-05T06:23:00.601Z,12.12
2019-04-05T06:25:29.054Z,12.12
2019-04-05T06:27:59.807Z,11.91
2019-04-05T06:32:57.949Z,11.43
2019-04-05T06:35:26.405Z,11.73
2019-04-05T06:35:39.483Z,11.88
2019-04-05T06:37:54.854Z,11.67
2019-04-05T06:40:23.335Z,11.47
2019-04-05T06:42:51.809Z,11.47
2019-04-05T06:45:20.293Z,11.19
2019-04-05T06:47:48.773Z,11.19
2019-04-05T06:50:17.354Z,11.22
2019-04-05T06:52:45.840Z,10.61
2019-04-05T06:55:14.293Z,10.61
2019-04-05T06:57:42.772Z,10.66
2019-04-05T07:00:11.267Z,10.79
2019-04-05T07:02:39.740Z,10.94
2019-04-05T07:05:08.541Z,10.94
2019-04-05T07:07:37.025Z,10.84
2019-04-05T07:10:06.238Z,10.72
2019-04-05T07:12:34.709Z,10.50
2019-04-05T07:15:03.363Z,10.50
2019-04-05T07:17:31.847Z,10.61
2019-04-05T07:20:00.391Z,10.65
2019-04-05T07:22:38.463Z,10.36
2019-04-05T07:24:59.033Z,10.46
2019-04-05T07:27:27.558Z,10.27
2019-04-05T07:29:56.049Z,10.55
2019-04-05T07:32:24.507Z,10.59
2019-04-05T07:34:52.952Z,10.59
2019-04-05T07:37:21.407Z,10.16
2019-04-05T07:39:49.902Z,10.31
2019-04-05T07:42:18.390Z,10.10
2019-04-05T07:44:46.846Z,10.22
2019-04-05T07:47:15.318Z,10.21
2019-04-05T07:49:43.789Z,9.79
2019-04-05T07:52:13.182Z,10.02
2019-04-05T07:54:41.701Z,10.26
2019-04-05T07:57:10.240Z,10.39
2019-04-05T07:59:38.671Z,10.60
2019-04-05T08:02:07.131Z,10.62
2019-04-05T08:04:35.584Z,10.51
2019-04-05T08:07:05.595Z,10.64
2019-04-05T08:09:36.880Z,10.80
2019-04-05T08:12:06.153Z,10.87
2019-04-05T08:14:37.323Z,10.83
2019-04-05T08:17:05.787Z,10.76
2019-04-05T08:19:34.226Z,10.73
2019-04-05T08:22:02.713Z,10.73
2019-04-05T08:24:31.170Z,11.04
2019-04-05T08:26:59.626Z,10.81
2019-04-05T08:29:28.093Z,10.93
2019-04-05T08:31:56.531Z,10.92
2019-04-05T08:34:24.983Z,11.06
2019-04-05T08:36:53.449Z,11.44
2019-04-05T08:39:21.883Z,11.44
2019-04-05T08:41:50.366Z,11.16
2019-04-05T08:44:18.809Z,11.46
2019-04-05T08:46:47.292Z,11.46
2019-04-05T08:49:15.768Z,11.37
2019-04-05T08:51:44.210Z,11.37
2019-04-05T08:54:12.683Z,11.48
2019-04-05T08:56:41.261Z,11.62
2019-04-05T08:59:09.723Z,11.55
2019-04-05T09:01:38.193Z,11.24
2019-04-05T09:04:06.641Z,11.24
2019-04-05T09:06:35.109Z,11.25
2019-04-05T09:09:05.638Z,11.25
2019-04-05T09:11:34.180Z,11.10
2019-04-05T09:14:02.617Z,11.61
2019-04-05T09:16:31.062Z,11.66
2019-04-05T09:18:59.543Z,11.66
2019-04-05T09:21:28.032Z,11.65
2019-04-05T09:23:59.084Z,11.53
2019-04-05T09:26:26.640Z,11.53
2019-04-05T09:28:55.099Z,11.80
2019-04-05T09:31:23.558Z,11.78
2019-04-05T09:33:51.986Z,11.78
2019-04-05T09:36:20.464Z,11.34
2019-04-05T09:38:49.766Z,11.26
2019-04-05T09:41:18.236Z,11.26
2019-04-05T09:43:46.707Z,11.46
2019-04-05T09:46:15.156Z,11.59
2019-04-05T09:48:43.598Z,11.59
2019-04-05T09:51:12.056Z,11.43
2019-04-05T09:53:40.525Z,11.43
2019-04-05T09:56:08.967Z,11.36
2019-04-05T09:58:37.782Z,11.65
2019-04-05T10:01:06.332Z,11.62
2019-04-05T10:03:34.810Z,11.60
2019-04-05T10:06:03.629Z,11.60
2019-04-05T10:08:32.063Z,11.77
2019-04-05T10:11:00.895Z,11.77
2019-04-05T10:13:29.360Z,11.78
2019-04-05T10:15:57.848Z,11.78
2019-04-05T10:18:26.336Z,11.89
2019-04-05T10:20:54.759Z,11.82
2019-04-05T10:23:23.227Z,11.82
2019-04-05T10:25:51.671Z,11.76
2019-04-05T10:28:20.105Z,11.77
2019-04-05T10:30:48.582Z,11.77
2019-04-05T10:33:17.035Z,12.07
2019-04-05T10:35:45.523Z,12.07
2019-04-05T10:38:13.958Z,12.07
2019-04-05T10:40:42.430Z,12.23
2019-04-05T10:43:11.173Z,12.37
2019-04-05T10:45:39.633Z,12.39
2019-04-05T10:48:08.093Z,12.26
2019-04-05T10:50:36.539Z,12.22
2019-04-05T10:53:05.061Z,12.47
2019-04-05T10:55:33.520Z,12.37
2019-04-05T10:58:02.005Z,12.52
2019-04-05T11:00:30.636Z,12.68
2019-04-05T11:02:59.083Z,12.63
2019-04-05T11:05:27.635Z,12.74
2019-04-05T11:07:56.109Z,12.67
2019-04-05T11:10:24.551Z,13.22
2019-04-05T11:12:53.045Z,13.22
2019-04-05T11:15:21.557Z,13.38
2019-04-05T11:17:50.191Z,13.62
2019-04-05T11:20:22.362Z,13.38
2019-04-05T11:22:50.079Z,13.19
2019-04-05T11:25:20.890Z,13.21
2019-04-05T11:27:49.655Z,13.36
2019-04-05T11:30:23.834Z,13.38
2019-04-05T11:32:52.269Z,13.66
2019-04-05T11:35:20.733Z,13.85
2019-04-05T11:37:50.651Z,14.06
2019-04-05T11:40:19.537Z,14.24
2019-04-05T11:42:49.552Z,14.28
2019-04-05T11:45:18.009Z,14.17
2019-04-05T11:47:47.080Z,14.23
2019-04-05T11:50:15.713Z,13.91
2019-04-05T11:52:44.203Z,14.18
2019-04-05T11:55:12.998Z,13.84
2019-04-05T11:57:42.046Z,14.35
2019-04-05T12:00:14.444Z,14.22
2019-04-05T12:02:44.575Z,14.11
2019-04-05T12:05:14.682Z,14.01
2019-04-05T12:07:43.162Z,14.33
2019-04-05T12:10:12.246Z,14.07
2019-04-05T12:12:40.767Z,13.51
2019-04-05T12:15:09.371Z,13.60
2019-04-05T12:17:37.908Z,13.78
2019-04-05T12:20:07.632Z,13.84
2019-04-05T12:22:36.064Z,14.44
2019-04-05T12:25:07.322Z,14.72
2019-04-05T12:27:36.229Z,14.57
2019-04-05T12:30:06.559Z,14.60
2019-04-05T12:32:41.080Z,14.77
2019-04-05T12:35:08.485Z,14.53
2019-04-05T12:37:49.626Z,14.94
2019-04-05T12:40:10.247Z,14.93
2019-04-05T12:42:38.273Z,14.67
2019-04-05T12:45:07.871Z,14.59
2019-04-05T12:47:36.429Z,14.49
2019-04-05T12:50:07.400Z,14.47
2019-04-05T12:52:35.968Z,14.74
2019-04-05T12:55:06.038Z,14.94
2019-04-05T12:57:34.548Z,14.88
2019-04-05T13:00:04.611Z,14.76
2019-04-05T13:02:34.079Z,15.03
2019-04-05T13:05:03.105Z,14.92
2019-04-05T13:07:34.791Z,15.15
2019-04-05T13:10:01.763Z,15.20
2019-04-05T13:12:30.250Z,15.49
2019-04-05T13:15:11.168Z,15.69
2019-04-05T13:17:31.055Z,15.49
2019-04-05T13:20:00.921Z,15.42
2019-04-05T13:22:32.203Z,15.54
2019-04-05T13:24:59.603Z,15.64
2019-04-05T13:27:28.092Z,15.44
2019-04-05T13:29:56.553Z,15.71
2019-04-05T13:32:25.151Z,15.94
2019-04-05T13:34:55.813Z,15.91
2019-04-05T13:37:23.886Z,15.61
2019-04-05T13:39:52.334Z,15.32
2019-04-05T13:42:20.789Z,15.27
2019-04-05T13:44:49.267Z,15.49
2019-04-05T13:47:17.764Z,15.58
2019-04-05T13:49:46.214Z,15.86
2019-04-05T13:52:14.654Z,15.77
2019-04-05T13:54:43.153Z,15.80
2019-04-05T13:57:11.718Z,15.89
2019-04-05T13:59:40.194Z,15.83
2019-04-05T14:02:08.657Z,15.63
2019-04-05T14:04:37.218Z,15.71
2019-04-05T14:07:06.309Z,15.98
2019-04-05T14:09:34.783Z,16.18
2019-04-05T14:12:04.058Z,16.44
2019-04-05T14:14:32.506Z,16.20
2019-04-05T14:17:00.994Z,15.99
2019-04-05T14:19:29.491Z,15.91
2019-04-05T14:22:07.777Z,15.74
2019-04-05T14:24:28.128Z,16.02
2019-04-05T14:26:56.673Z,16.20
2019-04-05T14:29:25.114Z,16.22
2019-04-05T14:31:53.593Z,15.99
2019-04-05T14:34:23.700Z,15.94
2019-04-05T14:36:52.444Z,16.11
2019-04-05T14:39:20.989Z,16.20
2019-04-05T14:41:49.433Z,16.04
2019-04-05T14:44:17.901Z,15.93
2019-04-05T14:46:46.348Z,16.04
2019-04-05T14:49:14.825Z,16.16
2019-04-05T14:51:52.405Z,16.32
2019-04-05T14:54:13.466Z,15.89
2019-04-05T14:56:41.921Z,16.03
2019-04-05T14:59:10.373Z,16.25
2019-04-05T15:01:38.918Z,16.46
2019-04-05T15:04:07.441Z,16.47
2019-04-05T15:06:35.944Z,16.45
2019-04-05T15:09:06.392Z,16.29
2019-04-05T15:11:34.877Z,16.53
2019-04-05T15:14:03.875Z,16.68
2019-04-05T15:16:32.335Z,16.24
2019-04-05T15:19:00.797Z,16.47
2019-04-05T15:21:29.281Z,16.61
2019-04-05T15:23:57.754Z,16.50
2019-04-05T15:26:26.239Z,16.54
2019-04-05T15:28:55.704Z,16.65
2019-04-05T15:31:26.502Z,16.64
2019-04-05T15:33:55.591Z,16.56
2019-04-05T15:36:24.646Z,16.43
2019-04-05T15:38:53.146Z,16.43
2019-04-05T15:41:22.012Z,16.44
2019-04-05T15:43:50.562Z,16.24
2019-04-05T15:46:19.183Z,15.88
2019-04-05T15:48:49.654Z,15.92
2019-04-05T15:51:17.875Z,15.66
2019-04-05T15:53:46.342Z,15.80
2019-04-05T15:56:14.824Z,16.03
2019-04-05T15:58:43.273Z,16.07
2019-04-05T16:01:11.948Z,16.00
2019-04-05T16:03:40.419Z,15.99
2019-04-05T16:06:08.932Z,16.02
2019-04-05T16:08:37.545Z,15.96
2019-04-05T16:11:06.079Z,15.92
2019-04-05T16:13:34.531Z,16.12
2019-04-05T16:16:03.003Z,16.12
2019-04-05T16:18:31.456Z,16.01
2019-04-05T16:20:59.981Z,16.02
2019-04-05T16:23:28.478Z,15.97
2019-04-05T16:25:56.943Z,16.09
2019-04-05T16:28:25.433Z,16.12
2019-04-05T16:30:53.900Z,16.06
2019-04-05T16:33:22.376Z,16.00
2019-04-05T16:35:50.936Z,15.98
2019-04-05T16:38:19.440Z,15.89
2019-04-05T16:40:47.886Z,15.86
2019-04-05T16:43:16.362Z,15.81
2019-04-05T16:45:44.825Z,15.87
2019-04-05T16:48:13.323Z,15.86
2019-04-05T16:50:42.423Z,15.85
2019-04-05T16:53:11.023Z,15.82
2019-04-05T16:55:39.498Z,15.70
2019-04-05T16:58:07.973Z,15.70
2019-04-05T17:00:36.451Z,15.63
2019-04-05T17:03:04.903Z,15.55
2019-04-05T17:05:33.347Z,15.59
2019-04-05T17:08:01.830Z,15.58
2019-04-05T17:10:30.293Z,15.49
2019-04-05T17:12:58.793Z,15.53
2019-04-05T17:15:27.256Z,15.45
2019-04-05T17:17:55.749Z,15.37
2019-04-05T17:20:24.239Z,15.33
2019-04-05T17:22:58.497Z,15.20
2019-04-05T17:25:22.897Z,15.25
2019-04-05T17:27:51.346Z,15.19
2019-04-05T17:30:19.816Z,15.09
2019-04-05T17:32:48.936Z,14.98
2019-04-05T17:35:18.178Z,14.90
2019-04-05T17:37:46.816Z,14.86
2019-04-05T17:40:15.610Z,14.98
2019-04-05T17:42:44.108Z,14.83
2019-04-05T17:45:12.822Z,14.87
2019-04-05T17:47:41.287Z,14.82
2019-04-05T17:50:12.808Z,14.74
2019-04-05T17:52:41.323Z,14.71
2019-04-05T17:55:09.899Z,14.67
2019-04-05T17:57:38.321Z,14.79
2019-04-05T18:00:09.565Z,14.72
2019-04-05T18:02:38.110Z,14.68
2019-04-05T18:05:07.492Z,14.65
2019-04-05T18:07:35.961Z,14.61
2019-04-05T18:10:05.772Z,14.57
2019-04-05T18:12:34.269Z,14.46
2019-04-05T18:15:02.743Z,14.42
2019-04-05T18:17:31.333Z,14.28
2019-04-05T18:19:59.775Z,14.27
2019-04-05T18:22:28.604Z,14.22
2019-04-05T18:24:57.049Z,14.08
2019-04-05T18:27:25.570Z,14.07
2019-04-05T18:29:54.069Z,14.04
2019-04-05T18:32:22.650Z,14.08
2019-04-05T18:34:51.095Z,14.06
2019-04-05T18:37:19.545Z,14.02
2019-04-05T18:39:48.054Z,14.13
2019-04-05T18:42:16.642Z,14.13
2019-04-05T18:44:45.304Z,14.08
2019-04-05T18:47:13.771Z,13.93
2019-04-05T18:49:42.264Z,14.05
2019-04-05T18:52:10.706Z,14.01
2019-04-05T18:54:39.142Z,13.97
2019-04-05T18:57:07.638Z,13.94
2019-04-05T18:59:36.082Z,13.88
2019-04-05T19:02:04.599Z,13.81
2019-04-05T19:04:33.091Z,13.49
2019-04-05T19:07:01.523Z,13.49
2019-04-05T19:09:29.976Z,13.54
2019-04-05T19:11:58.452Z,13.53
2019-04-05T19:14:26.896Z,13.49
2019-04-05T19:16:55.365Z,13.35
2019-04-05T19:19:23.844Z,13.36
2019-04-05T19:21:52.346Z,13.36
2019-04-05T19:24:20.777Z,13.29
2019-04-05T19:26:49.222Z,13.19
2019-04-05T19:29:17.705Z,13.19
2019-04-05T19:49:17.521Z,13.30
2019-04-05T19:51:45.983Z,13.30
2019-04-05T19:54:14.479Z,13.09
2019-04-05T19:56:42.937Z,13.06
2019-04-05T19:59:11.407Z,13.10
2019-04-05T20:01:39.889Z,13.03
2019-04-05T20:04:08.338Z,12.90
2019-04-05T20:06:36.784Z,12.89
2019-04-05T20:09:07.309Z,12.82
2019-04-05T20:11:35.758Z,12.91
2019-04-05T20:14:04.300Z,12.91
2019-04-05T20:16:32.787Z,12.87
2019-04-05T20:19:01.183Z,12.94
2019-04-05T20:21:29.663Z,12.99
2019-04-05T20:23:58.132Z,12.97
2019-04-05T20:26:26.624Z,12.83
2019-04-05T20:28:55.069Z,12.83
2019-04-05T20:31:23.508Z,12.81
2019-04-05T20:33:52.026Z,12.81
2019-04-05T20:36:20.469Z,12.75
2019-04-05T20:38:48.928Z,12.79
2019-04-05T20:41:17.371Z,12.70
2019-04-05T20:43:45.852Z,12.72
2019-04-05T20:46:14.295Z,12.77
2019-04-05T20:48:42.757Z,12.72
2019-04-05T20:51:11.230Z,12.68
2019-04-05T20:53:39.671Z,12.76
2019-04-05T20:56:08.157Z,12.74
2019-04-05T20:58:36.626Z,12.76
2019-04-05T21:01:05.090Z,12.63
2019-04-05T21:03:33.560Z,12.63
2019-04-05T21:06:02.047Z,12.75
2019-04-05T21:08:30.479Z,12.74
2019-04-05T21:10:58.963Z,12.83
2019-04-05T21:13:27.452Z,12.91
2019-04-05T21:15:55.901Z,12.75
2019-04-05T21:18:24.378Z,12.77
2019-04-05T21:20:52.941Z,12.71
2019-04-05T21:23:21.368Z,12.78
2019-04-05T21:25:49.868Z,12.75
2019-04-05T21:28:18.353Z,12.62
2019-04-05T21:30:46.784Z,12.70
2019-04-05T21:33:15.251Z,12.73
2019-04-05T21:35:45.788Z,12.67
2019-04-05T21:38:13.845Z,12.59
2019-04-05T21:40:42.330Z,12.49
2019-04-05T21:43:10.770Z,12.61
2019-04-05T21:45:39.222Z,12.46
2019-04-05T21:48:07.723Z,12.47
2019-04-05T21:50:36.167Z,12.56
2019-04-05T21:53:04.609Z,12.50
2019-04-05T21:55:33.089Z,12.57
2019-04-05T21:58:01.554Z,12.58
2019-04-05T22:00:51.435Z,12.42
2019-04-05T22:03:19.864Z,12.34
2019-04-05T22:05:48.334Z,12.36
2019-04-05T22:08:16.836Z,12.28
2019-04-05T22:10:45.238Z,12.26
2019-04-05T22:13:13.709Z,12.28
2019-04-05T22:15:42.156Z,12.23
2019-04-05T22:18:10.610Z,12.12
2019-04-05T22:20:39.064Z,12.12
2019-04-05T22:23:07.525Z,12.18
2019-04-05T22:25:35.969Z,12.10
2019-04-05T22:28:04.448Z,12.17
2019-04-05T22:30:32.906Z,12.21
2019-04-05T22:33:01.370Z,12.19
2019-04-05T22:35:29.805Z,12.03
2019-04-05T22:37:58.244Z,12.03
2019-04-05T22:40:26.710Z,11.98
2019-04-05T22:42:55.189Z,12.00
2019-04-05T22:45:23.630Z,12.00
2019-04-05T22:47:52.074Z,11.99
2019-04-05T22:50:20.540Z,12.12
2019-04-05T22:52:49.016Z,12.12
2019-04-05T22:55:17.464Z,12.16
2019-04-05T22:57:45.973Z,12.20
2019-04-05T23:00:14.564Z,12.09
2019-04-05T23:02:43.034Z,12.26
2019-04-05T23:05:11.783Z,12.38
2019-04-05T23:07:40.260Z,12.39
2019-04-05T23:10:10.094Z,12.32
2019-04-05T23:12:38.530Z,12.30
2019-04-05T23:15:08.840Z,12.41
2019-04-05T23:17:37.318Z,12.40
2019-04-05T23:20:06.662Z,12.41
2019-04-05T23:22:35.137Z,12.26
2019-04-05T23:25:04.761Z,12.21
2019-04-05T23:27:33.244Z,12.12
2019-04-05T23:30:01.762Z,12.24
2019-04-05T23:32:30.222Z,12.08
2019-04-05T23:34:58.724Z,11.98
2019-04-05T23:37:27.157Z,11.98
2019-04-05T23:39:55.621Z,11.98
2019-04-05T23:42:24.096Z,11.87
2019-04-05T23:44:52.534Z,11.87
2019-04-05T23:47:21.173Z,11.85
2019-04-05T23:49:49.633Z,11.95
2019-04-05T23:52:18.138Z,12.05
2019-04-05T23:54:46.557Z,12.05
2019-04-05T23:57:15.032Z,12.04
2019-04-05T23:59:43.501Z,12.04
